Startpagina
METAR-TAF:

METAR-TAF

Vliegvelden :

Kingston, Jamaica

Norman Manley International Airport

breedte: 17-56N, lengte: 076-47W, hoogte: 3 m

Actueel weer

Dit bericht is 46 minuten geleden gemaakt, om 06:00 UTC
Wind 5 kt uit het noordnoordwesten
Temperatuur 27°C
Vochtigheid 89%
Druk 1013 hPa
Zicht 10 km of meer
Weinig wolken op 2200 ft

METAR: MKJP 280600Z 33005KT 9999 FEW022 27/25 Q1013

Tijdstip: 01:46 (06:46 UTC)

Verwachting

Dit bericht is 1 uur en het 31 minuten geleden gemaakt, om 05:15 UTC
Verwachting geldig van 28 om 06 UTC tot 29 om 06 UTC
Wind 5 kt uit het noorden
Zicht 10 km of meer
Weinig wolken op 2200 ft
Wijzigt naar
van 28 om 14 UTC tot 28 om 16 UTC
Wind 17 kt uit het zuidzuidoosten
Kans 40% :
Tijdelijke
van 28 om 18 UTC tot 28 om 24 UTC
Verspreide wolken op 2000 ft, Cumulonimbus.
Wijzigt naar
van 29 om 02 UTC tot 29 om 04 UTC
Wind 5 kt uit het noorden

TAF: MKJP 280515Z 2806/2906 35005KT 9999 FEW022 BECMG 2814/2816 15017KT PROB40 TEMPO 2818/2824 SCT020CB BECMG 2902/2904 35005KT

Waarnemingen en weersverwachtingen van meer dan 4000 vliegvelden (METAR en TAF).

De beschikbare stations zijn de gele en rode punten op de kaart.

Ga met uw muis naar het station om de naam te zien.

Klik dan om waarnemingen en weersverwachtingen te zien.

kaart wijzigen: klik op de groene knoppen met een zwart kruis om in te zoomen, op de groene knop met een streepje om uit te zoomen of op de groene pijlen voor aangrenzende kaarten.


METAR-TAF: